createdAt,value
2018-11-12T19:35:45.839Z,98630.14
2018-11-12T19:38:14.147Z,98629.83
2018-11-12T19:40:42.375Z,98628.20
2018-11-12T19:43:10.541Z,98627.29
2018-11-12T19:45:38.738Z,98626.98
2018-11-12T19:48:06.957Z,98634.56
2018-11-12T19:50:35.229Z,98632.69
2018-11-12T19:53:03.397Z,98640.45
2018-11-12T19:55:31.553Z,98646.44
2018-11-12T19:57:59.741Z,98642.98
2018-11-12T20:00:34.501Z,98650.38
2018-11-12T20:03:03.405Z,98650.07
2018-11-12T20:05:31.585Z,98648.47
2018-11-12T20:07:59.784Z,98655.92
2018-11-12T20:10:28.003Z,98653.80
2018-11-12T20:12:56.153Z,98656.11
2018-11-12T20:15:25.328Z,98658.77
2018-11-12T20:17:54.030Z,98669.36
2018-11-12T20:20:23.608Z,98677.56
2018-11-12T20:22:52.023Z,98672.94
2018-11-12T20:25:20.673Z,98675.09
2018-11-12T20:27:49.452Z,98673.25
2018-11-12T20:30:21.653Z,98670.84
2018-11-12T20:32:49.869Z,98668.86
2018-11-12T20:35:18.136Z,98664.61
2018-11-12T20:37:46.329Z,98662.27
2018-11-12T20:40:15.342Z,98664.54
2018-11-12T20:42:44.638Z,98681.75
2018-11-12T20:45:14.092Z,98677.19
2018-11-12T20:47:42.923Z,98681.50
2018-11-12T20:50:12.430Z,98684.27
2018-11-12T20:52:40.954Z,98685.43
2018-11-12T20:55:10.109Z,98682.05
2018-11-12T20:57:38.834Z,98674.78
2018-11-12T21:00:10.887Z,98675.44
2018-11-12T21:02:39.756Z,98668.66
2018-11-12T21:05:08.440Z,98667.25
2018-11-12T21:07:36.655Z,98677.35
2018-11-12T21:10:05.133Z,98671.09
2018-11-12T21:12:33.297Z,98675.64
2018-11-12T21:15:01.472Z,98681.67
2018-11-12T21:17:29.636Z,98679.48
2018-11-12T21:19:57.860Z,98673.41
2018-11-12T21:22:26.053Z,98666.24
2018-11-12T21:24:54.232Z,98673.32
2018-11-12T21:27:22.376Z,98668.41
2018-11-12T21:29:50.763Z,98669.86
2018-11-12T21:32:18.943Z,98672.59
2018-11-12T21:34:47.116Z,98667.59
2018-11-12T21:37:15.381Z,98659.91
2018-11-12T21:39:43.481Z,98662.04
2018-11-12T21:42:11.628Z,98667.16
2018-11-12T21:44:39.885Z,98665.63
2018-11-12T21:47:08.233Z,98664.83
2018-11-12T21:49:36.584Z,98665.30
2018-11-12T21:52:05.226Z,98666.66
2018-11-12T21:54:33.468Z,98667.29
2018-11-12T21:57:01.777Z,98657.25
2018-11-12T21:59:30.207Z,98657.17
2018-11-12T22:01:58.485Z,98659.83
2018-11-12T22:04:26.843Z,98666.68
2018-11-12T22:06:55.255Z,98663.33
2018-11-12T22:09:23.503Z,98658.16
2018-11-12T22:11:51.729Z,98661.67
2018-11-12T22:14:20.242Z,98665.38
2018-11-12T22:16:48.436Z,98667.04
2018-11-12T22:19:16.717Z,98657.72
2018-11-12T22:21:44.972Z,98648.52
2018-11-12T22:24:13.174Z,98652.88
2018-11-12T22:26:41.473Z,98658.11
2018-11-12T22:29:09.883Z,98655.26
2018-11-12T22:31:38.334Z,98654.91
2018-11-12T22:34:06.548Z,98645.67
2018-11-12T22:36:34.876Z,98658.27
2018-11-12T22:39:03.066Z,98662.44
2018-11-12T22:41:31.364Z,98658.66
2018-11-12T22:43:59.614Z,98657.36
2018-11-12T22:46:28.132Z,98660.73
2018-11-12T22:48:56.869Z,98669.11
2018-11-12T22:51:25.560Z,98662.58
2018-11-12T22:53:54.308Z,98666.70
2018-11-12T22:56:23.152Z,98671.70
2018-11-12T22:58:51.329Z,98670.52
2018-11-12T23:01:19.496Z,98669.27
2018-11-12T23:03:47.669Z,98672.77
2018-11-12T23:06:15.945Z,98666.75
2018-11-12T23:08:44.142Z,98665.81
2018-11-12T23:11:12.688Z,98670.17
2018-11-12T23:13:40.881Z,98662.50
2018-11-12T23:16:09.249Z,98664.51
2018-11-12T23:18:37.405Z,98663.59
2018-11-12T23:21:05.769Z,98664.70
2018-11-12T23:23:33.933Z,98662.80
2018-11-12T23:26:02.148Z,98658.93
2018-11-12T23:28:30.353Z,98660.78
2018-11-12T23:30:58.569Z,98661.28
2018-11-12T23:33:26.781Z,98660.25
2018-11-12T23:35:55.041Z,98660.52
2018-11-12T23:38:23.205Z,98656.33
2018-11-12T23:40:51.373Z,98664.01
2018-11-12T23:43:19.572Z,98663.70
2018-11-12T23:45:47.848Z,98662.09
2018-11-12T23:51:36.302Z,98663.55
2018-11-12T23:54:04.760Z,98664.84
2018-11-12T23:56:32.964Z,98663.80
2018-11-12T23:59:01.124Z,98663.00
